Arad, Romania
Current Conditions -  °F | °C
As of 3:30 PM on Thursday 29 Jan 2015 (Local Time) from LRAR Reporting Station
Scattered Clouds Scattered Clouds  
Wind Chill: 33°   Ceiling: Unl
Heat Index: 41°   Visibility: 6mi
Dew Point: 34°   Wind: 15mph
Humidity: 76%   Direction: 200°SSW
Pressure: 29.59"   Gusts: NA
Location:  46.19°N, 21.32°E
Report Text: LRAR 291230Z 20013KT 170V230 9999 SCT023 05/01 Q1002
Loading
Personal Weather Stations






























Interactive Weather Map New forecast layout! Learn more

10-Day Weather Forecast

Advertisements
Track Severe Weather on mobile